createdAt,value
2022-09-30T00:00:48.678Z,62.70
2022-09-30T00:01:51.353Z,62.56
2022-09-30T00:02:52.895Z,62.58
2022-09-30T00:03:54.463Z,62.56
2022-09-30T00:04:56.048Z,62.65
2022-09-30T00:06:04.330Z,62.79
2022-09-30T00:07:09.170Z,62.88
2022-09-30T00:08:10.659Z,62.86
2022-09-30T00:09:12.933Z,62.54
2022-09-30T00:10:17.174Z,62.60
2022-09-30T00:11:31.350Z,62.76
2022-09-30T00:12:32.862Z,62.72
2022-09-30T00:13:35.054Z,62.57
2022-09-30T00:14:36.500Z,62.78
2022-09-30T00:15:37.987Z,62.74
2022-09-30T00:16:39.523Z,62.75
2022-09-30T00:17:41.013Z,62.56
2022-09-30T00:18:42.557Z,62.50
2022-09-30T00:19:43.967Z,62.46
2022-09-30T00:20:45.421Z,62.49
2022-09-30T00:21:46.982Z,62.58
2022-09-30T00:22:48.410Z,62.85
2022-09-30T00:23:49.827Z,63.08
2022-09-30T00:24:51.313Z,63.08
2022-09-30T00:25:57.270Z,63.01
2022-09-30T00:26:58.751Z,63.09
2022-09-30T00:28:00.291Z,63.27
2022-09-30T00:29:01.779Z,63.27
2022-09-30T00:30:03.664Z,63.21
2022-09-30T00:31:07.240Z,63.26
2022-09-30T00:32:08.683Z,63.13
2022-09-30T00:33:10.102Z,63.30
2022-09-30T00:34:12.159Z,63.12
2022-09-30T00:35:13.619Z,63.47
2022-09-30T00:36:15.124Z,63.31
2022-09-30T00:37:16.838Z,63.20
2022-09-30T00:38:18.254Z,63.40
2022-09-30T00:39:20.850Z,63.40
2022-09-30T00:40:22.647Z,63.38
2022-09-30T00:41:25.071Z,63.30
2022-09-30T00:42:29.550Z,63.49
2022-09-30T00:43:51.644Z,63.42
2022-09-30T00:45:02.154Z,63.56
2022-09-30T00:46:03.638Z,63.53
2022-09-30T00:47:06.964Z,63.31
2022-09-30T00:48:10.826Z,63.43
2022-09-30T00:49:13.944Z,63.47
2022-09-30T00:50:18.032Z,63.43
2022-09-30T00:51:39.163Z,63.36
2022-09-30T00:52:40.979Z,63.59
2022-09-30T00:53:50.783Z,63.67
2022-09-30T00:54:52.815Z,63.65
2022-09-30T00:56:07.604Z,63.49
2022-09-30T00:57:09.110Z,63.87
2022-09-30T00:58:11.211Z,63.83
2022-09-30T00:59:16.892Z,63.94
2022-09-30T01:00:18.395Z,63.66
2022-09-30T01:01:19.843Z,63.72
2022-09-30T01:02:21.471Z,63.84
2022-09-30T01:03:23.102Z,63.70
2022-09-30T01:04:24.646Z,63.66
2022-09-30T01:05:26.493Z,63.54
2022-09-30T01:06:28.056Z,63.89
2022-09-30T01:07:29.523Z,63.59
2022-09-30T01:08:31.232Z,63.69
2022-09-30T01:09:36.164Z,63.73
2022-09-30T01:10:37.769Z,63.82
2022-09-30T01:11:39.311Z,63.70
2022-09-30T01:12:40.767Z,63.72
2022-09-30T01:13:43.069Z,63.79
2022-09-30T01:14:44.882Z,63.70
2022-09-30T01:15:46.289Z,63.74
2022-09-30T01:16:53.809Z,63.86
2022-09-30T01:17:57.948Z,64.07
2022-09-30T01:19:17.815Z,63.86
2022-09-30T01:20:36.878Z,63.99
2022-09-30T01:21:54.830Z,63.81
2022-09-30T01:23:05.187Z,63.83
2022-09-30T01:24:25.087Z,63.85
2022-09-30T01:25:47.016Z,63.93
2022-09-30T01:26:48.428Z,63.99
2022-09-30T01:28:09.556Z,63.97
2022-09-30T01:29:13.671Z,63.78
2022-09-30T01:30:21.924Z,63.71
2022-09-30T01:31:27.674Z,63.71
2022-09-30T01:32:48.526Z,63.84
2022-09-30T01:34:16.505Z,64.04
2022-09-30T01:35:20.831Z,63.85
2022-09-30T01:36:25.518Z,63.93
2022-09-30T01:37:29.948Z,64.13
2022-09-30T01:38:49.864Z,64.05
2022-09-30T01:39:53.637Z,64.10
2022-09-30T01:40:55.049Z,64.17
2022-09-30T01:42:10.823Z,64.16
2022-09-30T01:43:14.527Z,64.15
2022-09-30T01:44:31.179Z,64.04
2022-09-30T01:45:34.001Z,64.08
2022-09-30T01:46:44.228Z,64.13
2022-09-30T01:47:47.095Z,64.01
2022-09-30T01:49:06.834Z,64.02
2022-09-30T01:50:16.452Z,63.90
2022-09-30T01:51:23.251Z,63.92
2022-09-30T01:52:43.047Z,63.95
2022-09-30T01:53:51.916Z,63.85
2022-09-30T01:54:55.966Z,64.02
2022-09-30T01:56:12.528Z,63.84
2022-09-30T01:57:19.115Z,63.98
2022-09-30T01:58:20.583Z,63.95
2022-09-30T01:59:26.618Z,64.13
2022-09-30T02:00:28.125Z,63.83
2022-09-30T02:01:31.713Z,63.75
2022-09-30T02:02:42.326Z,63.91
2022-09-30T02:03:54.163Z,63.88
2022-09-30T02:05:02.945Z,63.94
2022-09-30T02:06:06.062Z,64.02
2022-09-30T02:07:09.197Z,63.78
2022-09-30T02:08:16.813Z,63.62
2022-09-30T02:09:28.406Z,63.77
2022-09-30T02:10:40.539Z,63.64
2022-09-30T02:11:42.322Z,63.52
2022-09-30T02:12:50.598Z,63.64
2022-09-30T02:14:07.092Z,63.67
2022-09-30T02:15:09.601Z,63.53
2022-09-30T02:16:15.080Z,63.64
2022-09-30T02:17:21.210Z,63.44
2022-09-30T02:18:29.612Z,63.57
2022-09-30T02:19:31.034Z,63.42
2022-09-30T02:20:33.180Z,63.36
2022-09-30T02:21:35.883Z,63.53
2022-09-30T02:22:43.252Z,63.68
2022-09-30T02:23:44.775Z,63.55
2022-09-30T02:24:47.028Z,63.66
2022-09-30T02:25:49.431Z,63.24
2022-09-30T02:26:50.902Z,63.41
2022-09-30T02:27:53.609Z,63.46
2022-09-30T02:28:59.235Z,63.40
2022-09-30T02:30:01.096Z,63.24
2022-09-30T02:31:02.827Z,63.30
2022-09-30T02:32:06.257Z,63.32
2022-09-30T02:33:09.063Z,63.31
2022-09-30T02:34:11.796Z,63.33
2022-09-30T02:35:27.167Z,62.98
2022-09-30T02:36:28.702Z,63.00
2022-09-30T02:37:32.047Z,62.63
2022-09-30T02:38:37.129Z,62.74
2022-09-30T02:39:47.510Z,62.51
2022-09-30T02:40:50.584Z,62.76
2022-09-30T02:41:53.227Z,62.93
2022-09-30T02:42:54.665Z,63.01
2022-09-30T02:43:56.404Z,62.78
2022-09-30T02:45:01.759Z,62.83
2022-09-30T02:46:17.671Z,62.95
2022-09-30T02:47:37.763Z,62.91
2022-09-30T02:48:58.062Z,63.07
2022-09-30T02:50:05.630Z,62.97
2022-09-30T02:51:11.296Z,63.01
2022-09-30T02:52:21.034Z,63.05
2022-09-30T02:53:33.622Z,62.69
2022-09-30T02:54:41.283Z,63.15
2022-09-30T02:55:42.746Z,62.95
2022-09-30T02:56:48.546Z,62.81
2022-09-30T02:57:52.998Z,62.98
2022-09-30T02:58:56.161Z,63.03
2022-09-30T02:59:57.800Z,62.76
2022-09-30T03:00:59.348Z,62.73
2022-09-30T03:02:01.138Z,63.00
2022-09-30T03:03:05.255Z,62.64
2022-09-30T03:04:06.695Z,62.65
2022-09-30T03:05:08.711Z,62.58
2022-09-30T03:06:10.384Z,62.64
2022-09-30T03:07:11.832Z,62.69
2022-09-30T03:08:13.297Z,62.96
2022-09-30T03:09:15.498Z,62.90
2022-09-30T03:10:17.387Z,62.88
2022-09-30T03:11:19.835Z,62.78
2022-09-30T03:12:36.573Z,62.70
2022-09-30T03:13:56.519Z,62.78
2022-09-30T03:15:04.419Z,62.99
2022-09-30T03:16:13.954Z,63.06
2022-09-30T03:17:24.071Z,62.88
2022-09-30T03:18:28.077Z,62.85
2022-09-30T03:19:38.678Z,62.66
2022-09-30T03:20:46.074Z,63.03
2022-09-30T03:21:59.797Z,62.94
2022-09-30T03:23:19.707Z,62.92
2022-09-30T03:24:39.698Z,62.82
2022-09-30T03:25:59.467Z,62.70
2022-09-30T03:27:09.686Z,62.64
2022-09-30T03:28:14.506Z,62.58
2022-09-30T03:29:21.376Z,62.54
2022-09-30T03:30:26.943Z,62.53
2022-09-30T03:31:46.658Z,62.60
2022-09-30T03:32:54.267Z,62.61
2022-09-30T03:33:57.970Z,62.87
2022-09-30T03:35:01.529Z,62.78
2022-09-30T03:36:03.095Z,62.59
2022-09-30T03:37:10.515Z,62.78
2022-09-30T03:38:12.850Z,62.52
2022-09-30T03:39:23.955Z,62.48
2022-09-30T03:40:51.920Z,62.46
2022-09-30T03:41:57.024Z,62.70
2022-09-30T03:43:04.931Z,62.33
2022-09-30T03:44:24.744Z,62.41
2022-09-30T03:45:26.159Z,62.47
2022-09-30T03:46:27.653Z,62.49
2022-09-30T03:47:29.671Z,62.43
2022-09-30T03:48:31.131Z,62.14
2022-09-30T03:49:52.825Z,62.19
2022-09-30T03:50:54.327Z,61.89
2022-09-30T03:51:58.698Z,62.41
2022-09-30T03:53:00.725Z,62.25
2022-09-30T03:54:02.172Z,62.42
2022-09-30T03:55:04.475Z,62.48
2022-09-30T03:56:05.998Z,62.46
2022-09-30T03:57:07.739Z,62.39
2022-09-30T03:58:09.198Z,62.29
2022-09-30T03:59:11.791Z,62.08
2022-09-30T04:00:13.437Z,62.40
2022-09-30T04:01:19.212Z,62.41
2022-09-30T04:02:21.109Z,62.17
2022-09-30T04:03:22.904Z,62.35
2022-09-30T04:04:24.374Z,62.27
2022-09-30T04:05:25.820Z,62.30
2022-09-30T04:06:27.307Z,62.18
2022-09-30T04:07:28.788Z,62.19
2022-09-30T04:08:33.725Z,62.03
2022-09-30T04:09:35.503Z,62.05
2022-09-30T04:10:37.066Z,62.31
2022-09-30T04:11:38.514Z,62.04
2022-09-30T04:12:39.971Z,62.21
2022-09-30T04:13:41.556Z,62.19
2022-09-30T04:14:43.265Z,62.35
2022-09-30T04:15:44.706Z,62.42
2022-09-30T04:16:48.637Z,62.03
2022-09-30T04:17:52.101Z,62.20
2022-09-30T04:18:53.543Z,62.07
2022-09-30T04:19:55.011Z,62.36
2022-09-30T04:20:56.435Z,62.08
2022-09-30T04:21:58.156Z,62.43
2022-09-30T04:23:00.143Z,62.36
2022-09-30T04:24:01.666Z,61.99
2022-09-30T04:25:03.139Z,62.28
2022-09-30T04:26:05.575Z,62.29
2022-09-30T04:27:07.074Z,62.10
2022-09-30T04:28:08.575Z,61.79
2022-09-30T04:29:10.063Z,61.90
2022-09-30T04:30:11.516Z,61.94
2022-09-30T04:31:13.145Z,61.65
2022-09-30T04:32:14.716Z,61.66
2022-09-30T04:33:16.263Z,61.88
2022-09-30T04:34:17.700Z,61.75
2022-09-30T04:35:19.615Z,61.53
2022-09-30T04:36:21.138Z,62.08
2022-09-30T04:37:22.727Z,61.96
2022-09-30T04:38:24.655Z,62.17
2022-09-30T04:39:26.140Z,62.12
2022-09-30T04:40:27.571Z,62.06
2022-09-30T04:41:29.345Z,62.51
2022-09-30T04:42:30.810Z,62.38
2022-09-30T04:43:32.373Z,62.53
2022-09-30T04:44:35.311Z,62.44
2022-09-30T04:45:36.796Z,62.60
2022-09-30T04:46:38.365Z,62.48
2022-09-30T04:47:48.976Z,62.54
2022-09-30T04:48:50.441Z,62.53
2022-09-30T04:49:51.983Z,62.64
2022-09-30T04:50:53.954Z,62.76
2022-09-30T04:51:55.439Z,62.77
2022-09-30T04:52:57.289Z,62.80
2022-09-30T04:53:58.975Z,62.68
2022-09-30T04:55:00.445Z,62.55
2022-09-30T04:56:02.027Z,62.64
2022-09-30T04:57:03.521Z,62.71
2022-09-30T04:58:04.998Z,62.35
2022-09-30T04:59:07.043Z,62.42
2022-09-30T05:00:09.545Z,62.48
2022-09-30T05:01:11.841Z,62.45
2022-09-30T05:02:13.857Z,62.52
2022-09-30T05:03:15.319Z,62.52
2022-09-30T05:04:16.891Z,62.56
2022-09-30T05:05:18.491Z,62.43
2022-09-30T05:06:20.900Z,62.53
2022-09-30T05:07:22.415Z,62.81
2022-09-30T05:08:24.007Z,62.99
2022-09-30T05:09:25.673Z,63.10
2022-09-30T05:10:27.362Z,62.96
2022-09-30T05:11:29.594Z,62.89
2022-09-30T05:12:31.999Z,62.92
2022-09-30T05:13:34.163Z,62.73
2022-09-30T05:14:35.704Z,62.69
2022-09-30T05:15:37.138Z,63.01
2022-09-30T05:16:38.734Z,63.08
2022-09-30T05:17:40.279Z,62.97
2022-09-30T05:18:45.832Z,62.84
2022-09-30T05:19:47.801Z,62.85
2022-09-30T05:20:49.759Z,62.77
2022-09-30T05:21:52.512Z,62.87
2022-09-30T05:22:54.890Z,62.87
2022-09-30T05:23:56.469Z,62.65
2022-09-30T05:24:58.194Z,62.55
2022-09-30T05:26:00.025Z,62.57
2022-09-30T05:27:01.903Z,62.68
2022-09-30T05:28:03.357Z,62.67
2022-09-30T05:29:04.815Z,62.70
2022-09-30T05:30:06.712Z,62.73
2022-09-30T05:31:08.324Z,62.65
2022-09-30T05:32:09.867Z,62.73
2022-09-30T05:33:14.472Z,62.69
2022-09-30T05:34:16.840Z,62.64
2022-09-30T05:35:18.292Z,62.76
2022-09-30T05:36:19.753Z,62.69
2022-09-30T05:37:21.424Z,62.76
2022-09-30T05:38:22.914Z,62.72
2022-09-30T05:39:24.429Z,62.76
2022-09-30T05:40:25.908Z,62.75
2022-09-30T05:41:27.638Z,62.69
2022-09-30T05:42:30.839Z,62.72
2022-09-30T05:43:32.911Z,62.90
2022-09-30T05:44:34.386Z,62.79
2022-09-30T05:45:35.930Z,62.73
2022-09-30T05:46:37.435Z,62.90
2022-09-30T05:47:39.241Z,62.96
2022-09-30T05:48:40.674Z,63.04
2022-09-30T05:49:42.138Z,63.07
2022-09-30T05:50:43.601Z,63.09
2022-09-30T05:51:45.063Z,63.04
2022-09-30T05:52:46.656Z,63.23
2022-09-30T05:53:48.207Z,63.36
2022-09-30T05:54:50.604Z,63.14
2022-09-30T05:55:52.223Z,63.33
2022-09-30T05:56:53.645Z,63.35
2022-09-30T05:57:55.538Z,63.22
2022-09-30T05:58:56.986Z,63.17
2022-09-30T05:59:58.432Z,63.43
2022-09-30T06:01:09.234Z,63.63
2022-09-30T06:02:14.196Z,63.53
2022-09-30T06:03:15.918Z,63.36
2022-09-30T06:04:17.966Z,63.67
2022-09-30T06:05:19.394Z,63.79
2022-09-30T06:06:21.243Z,63.81
2022-09-30T06:07:22.867Z,63.74
2022-09-30T06:08:24.439Z,63.86
2022-09-30T06:09:26.382Z,63.70
2022-09-30T06:10:28.302Z,64.01
2022-09-30T06:11:29.898Z,63.93
2022-09-30T06:12:31.362Z,63.96
2022-09-30T06:13:33.202Z,64.48
2022-09-30T06:14:34.620Z,65.54
2022-09-30T06:15:39.692Z,65.17
2022-09-30T06:16:41.326Z,65.05
2022-09-30T06:17:43.397Z,65.11
2022-09-30T06:18:44.871Z,65.30
2022-09-30T06:19:46.363Z,65.17
2022-09-30T06:20:47.824Z,65.04
2022-09-30T06:21:49.287Z,65.10
2022-09-30T06:22:50.797Z,65.04
2022-09-30T06:23:52.278Z,65.33
2022-09-30T06:24:55.483Z,65.26
2022-09-30T06:25:58.053Z,65.44
2022-09-30T06:27:00.115Z,65.54
2022-09-30T06:28:02.590Z,65.48
2022-09-30T06:29:04.019Z,65.55
2022-09-30T06:30:06.078Z,65.79
2022-09-30T06:31:07.998Z,65.84
2022-09-30T06:32:09.499Z,65.91
2022-09-30T06:33:11.654Z,65.83
2022-09-30T06:34:13.679Z,65.91
2022-09-30T06:35:15.224Z,66.21
2022-09-30T06:36:17.233Z,66.29
2022-09-30T06:37:19.190Z,66.31
2022-09-30T06:38:22.727Z,66.49
2022-09-30T06:39:24.327Z,66.51
2022-09-30T06:40:26.101Z,66.33
2022-09-30T06:41:28.048Z,66.66
2022-09-30T06:42:29.550Z,66.42
2022-09-30T06:43:37.120Z,66.41
2022-09-30T06:44:52.823Z,66.49
2022-09-30T06:46:05.962Z,66.28
2022-09-30T06:47:22.592Z,66.37
2022-09-30T06:48:37.511Z,66.74
2022-09-30T06:49:48.713Z,66.50
2022-09-30T06:51:01.421Z,66.49
2022-09-30T06:52:04.071Z,66.94
2022-09-30T06:53:06.814Z,66.85
2022-09-30T06:54:09.120Z,66.89
2022-09-30T06:55:10.811Z,66.85
2022-09-30T06:56:12.835Z,66.31
2022-09-30T06:57:14.277Z,66.43
2022-09-30T06:58:15.848Z,66.42
2022-09-30T06:59:17.395Z,66.94
2022-09-30T07:00:18.840Z,66.24
2022-09-30T07:01:21.047Z,66.40
2022-09-30T07:02:22.735Z,66.39
2022-09-30T07:03:25.018Z,66.61
2022-09-30T07:04:26.474Z,66.29
2022-09-30T07:05:27.886Z,65.90
2022-09-30T07:06:29.362Z,65.79
2022-09-30T07:07:34.429Z,65.30
2022-09-30T07:08:36.143Z,65.78
2022-09-30T07:09:37.811Z,65.78
2022-09-30T07:10:39.693Z,65.06
2022-09-30T07:11:41.156Z,64.76
2022-09-30T07:12:42.651Z,64.41
2022-09-30T07:13:45.925Z,64.60
2022-09-30T07:14:47.861Z,64.08
2022-09-30T07:15:51.178Z,64.15
2022-09-30T07:16:53.455Z,64.01
2022-09-30T07:17:56.683Z,63.92
2022-09-30T07:18:59.848Z,63.47
2022-09-30T07:20:01.480Z,63.60
2022-09-30T07:21:02.983Z,63.63
2022-09-30T07:22:22.971Z,63.65
2022-09-30T07:23:27.327Z,63.80
2022-09-30T07:24:30.092Z,63.73
2022-09-30T07:25:31.547Z,63.19
2022-09-30T07:26:33.382Z,62.89
2022-09-30T07:27:35.212Z,62.23
2022-09-30T07:28:38.874Z,62.38
2022-09-30T07:30:04.263Z,61.97
2022-09-30T07:31:30.670Z,61.91
2022-09-30T07:32:28.242Z,61.81
2022-09-30T07:33:32.264Z,61.59
2022-09-30T07:34:33.747Z,61.54
2022-09-30T07:35:35.231Z,61.48
2022-09-30T07:36:37.915Z,61.67
2022-09-30T07:37:39.543Z,61.08
2022-09-30T07:38:41.222Z,60.71
2022-09-30T07:39:44.025Z,60.56
2022-09-30T07:40:55.044Z,60.72
2022-09-30T07:41:56.650Z,60.49
2022-09-30T07:42:58.503Z,60.01
2022-09-30T07:43:59.983Z,59.90
2022-09-30T07:45:02.104Z,59.86
2022-09-30T07:46:04.702Z,59.57
2022-09-30T07:47:06.375Z,59.12
2022-09-30T07:48:27.822Z,59.02
2022-09-30T07:49:30.055Z,58.52
2022-09-30T07:50:31.494Z,58.24
2022-09-30T07:51:34.981Z,57.74
2022-09-30T07:52:36.503Z,57.22
2022-09-30T07:53:37.990Z,57.20
2022-09-30T07:54:43.337Z,56.67
2022-09-30T07:55:46.876Z,56.31
2022-09-30T07:58:10.999Z,56.07
2022-09-30T07:59:12.608Z,55.36
2022-09-30T08:00:40.622Z,55.26
2022-09-30T08:01:35.881Z,54.80
2022-09-30T08:02:37.422Z,54.38
2022-09-30T08:03:39.811Z,53.91
2022-09-30T08:04:44.043Z,53.41
2022-09-30T08:05:46.160Z,53.71
2022-09-30T08:06:51.570Z,53.47
2022-09-30T08:07:53.058Z,52.72
2022-09-30T08:08:55.045Z,52.49
2022-09-30T08:09:56.612Z,52.54
2022-09-30T08:11:01.350Z,52.45
2022-09-30T08:12:03.981Z,51.24
2022-09-30T08:13:06.334Z,51.28
2022-09-30T08:14:07.969Z,51.10
2022-09-30T08:15:09.752Z,50.60
2022-09-30T08:16:11.262Z,50.39
2022-09-30T08:17:12.775Z,50.53
2022-09-30T08:18:14.232Z,50.17
2022-09-30T08:19:16.602Z,50.03
2022-09-30T08:20:22.333Z,49.54
2022-09-30T08:21:24.235Z,49.35
2022-09-30T08:22:25.720Z,49.35
2022-09-30T08:23:28.333Z,49.27
2022-09-30T08:24:29.841Z,48.74
2022-09-30T08:25:31.335Z,48.62
2022-09-30T08:26:32.844Z,48.29
2022-09-30T08:27:34.374Z,47.86
2022-09-30T08:28:36.068Z,47.44
2022-09-30T08:31:05.218Z,46.59
2022-09-30T08:32:06.697Z,46.65
2022-09-30T08:33:08.258Z,46.59
2022-09-30T08:34:09.762Z,46.04
2022-09-30T08:35:11.291Z,46.06
2022-09-30T08:36:13.978Z,45.58
2022-09-30T08:37:15.403Z,45.81
2022-09-30T08:38:16.824Z,45.79
2022-09-30T08:39:18.336Z,45.45
2022-09-30T08:40:21.759Z,44.96
2022-09-30T08:41:23.206Z,44.96
2022-09-30T08:42:49.136Z,44.68
2022-09-30T08:44:12.330Z,44.13
2022-09-30T08:45:46.187Z,44.19
2022-09-30T08:46:54.807Z,44.02
2022-09-30T08:49:42.646Z,43.49
2022-09-30T08:51:01.523Z,43.40
2022-09-30T08:52:03.051Z,43.01
2022-09-30T08:53:05.711Z,42.92
2022-09-30T08:54:09.891Z,42.90
2022-09-30T08:55:15.510Z,42.59
2022-09-30T08:56:21.550Z,42.27
2022-09-30T08:57:23.085Z,41.25
2022-09-30T08:58:29.979Z,41.33
2022-09-30T08:59:35.860Z,41.53
2022-09-30T09:00:37.569Z,41.46
2022-09-30T09:01:40.177Z,41.76
2022-09-30T09:02:59.579Z,41.10
2022-09-30T09:04:01.339Z,40.50
2022-09-30T09:05:03.566Z,40.07
2022-09-30T09:06:08.834Z,39.88
2022-09-30T09:07:15.704Z,39.69
2022-09-30T09:08:32.098Z,39.35
2022-09-30T09:09:48.267Z,39.62
2022-09-30T09:10:59.312Z,38.98
2022-09-30T09:12:19.492Z,39.26
2022-09-30T09:13:23.717Z,38.95
2022-09-30T09:14:31.909Z,38.39
2022-09-30T09:15:56.815Z,38.50
2022-09-30T09:17:02.306Z,38.75
2022-09-30T09:18:23.521Z,38.55
2022-09-30T09:19:25.979Z,39.07
2022-09-30T09:20:29.694Z,38.79
2022-09-30T09:22:01.860Z,38.41
2022-09-30T09:23:03.784Z,38.35
2022-09-30T09:24:05.883Z,38.54
2022-09-30T09:25:10.471Z,37.49
2022-09-30T09:26:12.679Z,38.25
2022-09-30T09:27:18.923Z,37.99
2022-09-30T09:28:21.162Z,38.13
2022-09-30T09:29:41.847Z,38.18
2022-09-30T09:30:46.187Z,38.10
2022-09-30T09:31:48.373Z,37.30
2022-09-30T09:32:51.557Z,37.65
2022-09-30T09:33:53.650Z,37.22
2022-09-30T09:35:00.537Z,37.07
2022-09-30T09:36:17.238Z,37.43
2022-09-30T09:38:03.799Z,37.04
2022-09-30T09:39:24.232Z,36.98
2022-09-30T09:40:25.877Z,37.10
2022-09-30T09:41:42.292Z,36.81
2022-09-30T09:42:52.623Z,36.29
2022-09-30T09:44:06.368Z,35.66
2022-09-30T09:45:22.787Z,35.41
2022-09-30T09:46:30.646Z,35.13
2022-09-30T09:47:32.278Z,35.24
2022-09-30T09:48:35.496Z,35.02
2022-09-30T09:49:41.046Z,35.37
2022-09-30T09:50:43.356Z,36.19
2022-09-30T09:51:47.320Z,35.92
2022-09-30T09:53:00.131Z,36.37
2022-09-30T09:54:01.733Z,36.20
2022-09-30T09:55:03.994Z,36.49
2022-09-30T09:56:18.464Z,36.44
2022-09-30T09:57:24.855Z,36.66
2022-09-30T09:58:26.434Z,36.29
2022-09-30T09:59:28.110Z,35.97
2022-09-30T10:00:47.544Z,35.60
2022-09-30T10:01:50.489Z,35.17
2022-09-30T10:02:58.762Z,34.62
2022-09-30T10:04:11.078Z,35.34
2022-09-30T10:05:25.437Z,34.99
2022-09-30T10:06:26.872Z,35.24
2022-09-30T10:07:29.290Z,35.52
2022-09-30T10:08:34.560Z,35.22
2022-09-30T10:09:37.020Z,35.49
2022-09-30T10:10:48.788Z,35.58
2022-09-30T10:11:50.227Z,35.97
2022-09-30T10:12:51.667Z,35.67
2022-09-30T10:13:59.171Z,35.45
2022-09-30T10:15:01.718Z,35.52
2022-09-30T10:16:03.374Z,34.60
2022-09-30T10:17:09.119Z,35.07
2022-09-30T10:18:16.413Z,34.91
2022-09-30T10:19:25.215Z,34.52
2022-09-30T10:20:28.173Z,34.88
2022-09-30T10:21:29.651Z,35.39
2022-09-30T10:22:31.578Z,35.56
2022-09-30T10:23:33.945Z,34.99
2022-09-30T10:24:38.551Z,34.46
2022-09-30T10:25:40.007Z,34.83
2022-09-30T10:26:47.742Z,33.92
2022-09-30T10:27:51.962Z,34.43
2022-09-30T10:28:54.813Z,34.41
2022-09-30T10:29:56.274Z,34.41
2022-09-30T10:31:04.676Z,33.27
2022-09-30T10:32:06.799Z,32.01
2022-09-30T10:33:12.326Z,31.81
2022-09-30T10:34:29.756Z,32.30
2022-09-30T10:35:31.224Z,32.09
2022-09-30T10:36:33.693Z,32.22
2022-09-30T10:37:35.407Z,32.23
2022-09-30T10:38:37.438Z,32.23
2022-09-30T10:39:39.305Z,31.59
2022-09-30T10:40:41.076Z,31.76
2022-09-30T10:41:42.546Z,32.48
2022-09-30T10:42:45.553Z,32.98
2022-09-30T10:43:48.192Z,32.81
2022-09-30T10:44:51.806Z,32.83
2022-09-30T10:46:20.800Z,32.68
2022-09-30T10:47:16.275Z,31.88
2022-09-30T10:48:18.650Z,32.21
2022-09-30T10:49:20.070Z,32.00
2022-09-30T10:50:22.399Z,32.64
2022-09-30T10:51:28.646Z,32.16
2022-09-30T10:52:34.866Z,32.14
2022-09-30T10:53:37.226Z,32.56
2022-09-30T10:54:51.464Z,32.22
2022-09-30T10:55:56.179Z,32.25
2022-09-30T10:56:57.644Z,31.50
2022-09-30T10:58:04.491Z,31.85
2022-09-30T10:59:26.191Z,31.91
2022-09-30T11:00:27.755Z,31.55
2022-09-30T11:01:32.511Z,31.16
2022-09-30T11:02:34.048Z,31.52
2022-09-30T11:04:05.157Z,31.56
2022-09-30T11:05:09.451Z,31.19
2022-09-30T11:06:11.292Z,30.71
2022-09-30T11:07:17.246Z,29.91
2022-09-30T11:08:25.606Z,30.18
2022-09-30T11:09:30.198Z,30.68
2022-09-30T11:10:40.342Z,30.32
2022-09-30T11:11:46.871Z,30.85
2022-09-30T11:12:49.927Z,31.67
2022-09-30T11:14:00.953Z,31.66
2022-09-30T11:15:02.506Z,32.59
2022-09-30T11:16:10.839Z,32.87
2022-09-30T11:17:28.331Z,32.76
2022-09-30T11:18:31.111Z,33.27
2022-09-30T11:19:41.631Z,33.75
2022-09-30T11:20:48.474Z,33.92
2022-09-30T11:21:54.811Z,33.90
2022-09-30T11:23:02.599Z,34.12
2022-09-30T11:24:07.639Z,33.75
2022-09-30T11:25:16.295Z,33.57
2022-09-30T11:26:20.600Z,33.54
2022-09-30T11:27:25.147Z,33.45
2022-09-30T11:28:46.881Z,33.42
2022-09-30T11:30:08.691Z,33.12
2022-09-30T11:31:28.698Z,33.55
2022-09-30T11:32:30.154Z,33.86
2022-09-30T11:33:31.577Z,33.74
2022-09-30T11:34:38.885Z,33.87
2022-09-30T11:35:46.477Z,34.34
2022-09-30T11:36:48.019Z,34.27
2022-09-30T11:38:08.611Z,34.47
2022-09-30T11:39:28.693Z,34.70
2022-09-30T11:40:50.486Z,34.69
2022-09-30T11:41:54.498Z,34.26
2022-09-30T11:43:14.291Z,34.82
2022-09-30T11:44:22.033Z,34.99
2022-09-30T11:45:31.628Z,34.97
2022-09-30T11:46:33.117Z,35.02
2022-09-30T11:47:37.543Z,34.71
2022-09-30T11:48:46.384Z,34.69
2022-09-30T11:49:47.819Z,34.53
2022-09-30T11:51:07.879Z,34.73
2022-09-30T11:52:24.651Z,34.89
2022-09-30T11:53:35.618Z,33.36
2022-09-30T11:54:37.023Z,33.61
2022-09-30T11:55:41.462Z,34.09
2022-09-30T11:56:57.546Z,34.16
2022-09-30T11:58:36.562Z,33.21
2022-09-30T11:59:43.352Z,33.43
2022-09-30T12:00:47.412Z,32.87
2022-09-30T12:01:49.995Z,33.25
2022-09-30T12:02:51.927Z,32.97
2022-09-30T12:04:19.455Z,33.17
2022-09-30T12:05:28.734Z,33.11
2022-09-30T12:06:34.890Z,33.27
2022-09-30T12:07:40.689Z,33.12
2022-09-30T12:08:44.483Z,33.00
2022-09-30T12:09:45.879Z,33.49
2022-09-30T12:10:53.035Z,33.82
2022-09-30T12:12:02.094Z,34.31
2022-09-30T12:13:04.860Z,34.14
2022-09-30T12:14:09.764Z,34.39
2022-09-30T12:15:15.477Z,35.20
2022-09-30T12:16:19.612Z,34.64
2022-09-30T12:17:26.765Z,34.69
2022-09-30T12:18:32.740Z,35.59
2022-09-30T12:19:36.215Z,35.24
2022-09-30T12:20:42.503Z,35.26
2022-09-30T12:21:49.705Z,35.67
2022-09-30T12:22:52.048Z,35.90
2022-09-30T12:24:00.777Z,35.75
2022-09-30T12:25:03.139Z,35.06
2022-09-30T12:26:04.796Z,34.93
2022-09-30T12:27:15.429Z,35.64
2022-09-30T12:28:54.414Z,35.96
2022-09-30T12:30:16.816Z,35.46
2022-09-30T12:31:21.087Z,35.38
2022-09-30T12:32:41.375Z,35.39
2022-09-30T12:33:50.848Z,35.97
2022-09-30T12:35:01.367Z,35.84
2022-09-30T12:36:03.605Z,35.46
2022-09-30T12:37:05.084Z,35.20
2022-09-30T12:38:15.832Z,35.21
2022-09-30T12:39:36.250Z,35.39
2022-09-30T12:40:43.271Z,35.46
2022-09-30T12:41:51.033Z,35.46
2022-09-30T12:43:11.419Z,35.96
2022-09-30T12:44:16.698Z,35.96
2022-09-30T12:45:18.147Z,35.94
2022-09-30T12:46:39.829Z,35.91
2022-09-30T12:47:45.950Z,35.52
2022-09-30T12:48:55.862Z,35.52
2022-09-30T12:49:58.104Z,35.46
2022-09-30T12:50:59.779Z,35.24
2022-09-30T12:52:03.499Z,35.64
2022-09-30T12:53:18.518Z,35.90
2022-09-30T12:54:31.599Z,35.95
2022-09-30T12:55:39.916Z,36.26
2022-09-30T12:56:41.960Z,36.50
2022-09-30T12:57:43.463Z,36.34
2022-09-30T12:58:48.483Z,36.48
2022-09-30T12:59:53.885Z,35.97
2022-09-30T13:01:00.322Z,36.05
2022-09-30T13:02:03.743Z,36.23
2022-09-30T13:03:05.246Z,36.31
2022-09-30T13:04:06.660Z,36.46
2022-09-30T13:05:26.266Z,36.75
2022-09-30T13:06:29.087Z,37.10
2022-09-30T13:07:30.711Z,37.11
2022-09-30T13:08:36.827Z,37.06
2022-09-30T13:09:55.403Z,37.64
2022-09-30T13:10:58.144Z,37.49
2022-09-30T13:11:59.571Z,37.45
2022-09-30T13:13:10.002Z,38.02
2022-09-30T13:14:25.967Z,37.49
2022-09-30T13:15:30.604Z,37.75
2022-09-30T13:16:52.491Z,37.70
2022-09-30T13:17:53.934Z,37.86
2022-09-30T13:18:58.373Z,37.97
2022-09-30T13:19:59.919Z,37.85
2022-09-30T13:21:04.427Z,38.22
2022-09-30T13:22:18.244Z,38.34
2022-09-30T13:23:35.663Z,38.50
2022-09-30T13:25:05.810Z,37.87
2022-09-30T13:26:22.386Z,37.72
2022-09-30T13:27:35.699Z,37.92
2022-09-30T13:28:37.602Z,38.18
2022-09-30T13:29:45.835Z,38.28
2022-09-30T13:30:47.344Z,38.34
2022-09-30T13:31:49.265Z,38.47
2022-09-30T13:32:57.543Z,38.96
2022-09-30T13:34:02.037Z,38.70
2022-09-30T13:35:15.512Z,38.80
2022-09-30T13:36:18.355Z,38.96
2022-09-30T13:37:31.191Z,39.12
2022-09-30T13:38:38.038Z,39.34
2022-09-30T13:39:46.097Z,39.26
2022-09-30T13:41:04.222Z,39.74
2022-09-30T13:42:08.474Z,40.06
2022-09-30T13:43:15.523Z,39.61
2022-09-30T13:44:19.795Z,39.86
2022-09-30T13:45:23.064Z,40.25
2022-09-30T13:46:24.611Z,40.39
2022-09-30T13:47:44.427Z,40.62
2022-09-30T13:48:48.774Z,39.61
2022-09-30T13:49:52.521Z,39.48
2022-09-30T13:50:54.307Z,39.78
2022-09-30T13:51:55.838Z,40.30
2022-09-30T13:53:02.511Z,40.43
2022-09-30T13:54:08.612Z,40.17
2022-09-30T13:55:28.551Z,40.72
2022-09-30T13:56:34.231Z,40.14
2022-09-30T13:57:43.643Z,40.38
2022-09-30T13:59:05.113Z,40.00
2022-09-30T14:00:07.369Z,39.71
2022-09-30T14:01:53.587Z,40.12
2022-09-30T14:03:27.364Z,40.45
2022-09-30T14:04:34.666Z,40.74
2022-09-30T14:05:48.212Z,41.04
2022-09-30T14:07:11.266Z,40.67
2022-09-30T14:08:12.744Z,41.33
2022-09-30T14:09:33.003Z,41.07
2022-09-30T14:10:43.856Z,40.87
2022-09-30T14:12:08.786Z,40.75
2022-09-30T14:13:28.566Z,40.91